Time;durP1;ratioP1;P1;durP2;ratioP2;P2;SDS_P1;SDS_P2;PMS_P1;PMS_P2;Temp;Humidity;BMP_temperature;BMP_pressure;BME280_temperature;BME280_humidity;BME280_pressure;Samples;Min_cycle;Max_cycle;Signal;HPM_P1;HPM_P2
2020/12/03 00:00:57;;;;;;;56.28;30.30;;;;;;;-0.44;65.92;97043.73;1784097;80;21134;-81
2020/12/03 00:03:34;;;;;;;61.53;32.60;;;;;;;-0.51;65.88;97039.77;1783900;80;21434;-81
2020/12/03 00:06:28;;;;;;;63.02;33.40;;;;;;;-0.49;65.95;97048.73;1783639;80;21085;-81
2020/12/03 00:09:07;;;;;;;65.10;33.55;;;;;;;-0.51;65.97;97055.28;1784585;80;21073;-82
2020/12/03 00:11:50;;;;;;;54.13;29.18;;;;;;;-0.43;65.96;97054.47;1820542;77;28022;-81
2020/12/03 00:14:19;;;;;;;49.18;27.07;;;;;;;-0.49;65.44;97056.03;1757703;81;21471;-81
2020/12/03 00:16:49;;;;;;;56.18;29.37;;;;;;;-0.63;64.67;97056.67;1767042;81;21577;-81
2020/12/03 00:19:21;;;;;;;55.60;28.20;;;;;;;-0.83;64.65;97051.53;1757110;81;21128;-82
2020/12/03 00:21:58;;;;;;;54.83;30.02;;;;;;;-0.93;64.49;97060.63;1767027;81;21148;-82
2020/12/03 00:24:30;;;;;;;58.98;30.27;;;;;;;-1.06;64.94;97068.53;1757388;81;21251;-82
2020/12/03 00:27:09;;;;;;;62.80;33.30;;;;;;;-1.07;65.19;97075.42;1767203;81;21097;-81
2020/12/03 00:29:38;;;;;;;58.70;32.53;;;;;;;-1.06;65.59;97083.59;1757448;81;22128;-81
2020/12/03 00:32:09;;;;;;;54.53;29.95;;;;;;;-0.98;65.83;97071.61;1767069;81;21537;-82
2020/12/03 00:34:38;;;;;;;54.42;30.08;;;;;;;-0.89;65.88;97062.15;1757172;81;21113;-80
2020/12/03 00:37:08;;;;;;;52.65;28.12;;;;;;;-0.82;65.87;97058.41;1692287;81;21152;-80
2020/12/03 00:39:36;;;;;;;55.60;28.85;;;;;;;-0.76;65.76;97050.38;1757299;81;21161;-82
2020/12/03 00:42:05;;;;;;;53.87;30.02;;;;;;;-0.76;65.78;97059.43;1767167;81;21447;-82
2020/12/03 00:44:34;;;;;;;59.98;31.68;;;;;;;-0.74;65.84;97056.77;1757113;81;21077;-82
2020/12/03 00:47:03;;;;;;;63.25;31.62;;;;;;;-0.72;65.85;97055.78;1767100;81;21073;-81
2020/12/03 00:49:32;;;;;;;64.32;33.00;;;;;;;-0.74;65.83;97051.59;1757206;81;21503;-81
2020/12/03 00:52:01;;;;;;;65.42;33.20;;;;;;;-0.76;66.05;97047.80;1767182;81;21168;-81
2020/12/03 00:54:30;;;;;;;61.75;30.65;;;;;;;-0.75;66.30;97055.09;1756991;81;21151;-81
2020/12/03 00:57:00;;;;;;;64.40;30.65;;;;;;;-0.74;66.43;97058.06;1766756;81;21145;-79
2020/12/03 00:59:30;;;;;;;58.17;31.35;;;;;;;-0.74;66.56;97059.36;1757057;81;21065;-80
2020/12/03 01:02:01;;;;;;;62.10;29.60;;;;;;;-0.76;66.63;97052.13;1767021;81;21565;-81
2020/12/03 01:04:29;;;;;;;57.90;28.55;;;;;;;-0.74;66.56;97047.72;1757182;81;21577;-81
2020/12/03 01:07:00;;;;;;;58.25;30.00;;;;;;;-0.80;66.35;97038.48;1766950;81;22105;-79
2020/12/03 01:09:30;;;;;;;55.73;27.70;;;;;;;-0.85;66.52;97039.14;1757236;81;21128;-81
2020/12/03 01:11:58;;;;;;;61.15;30.62;;;;;;;-0.88;66.64;97033.67;1747103;80;21189;-81
2020/12/03 01:14:27;;;;;;;62.00;30.55;;;;;;;-0.89;66.67;97038.45;1746531;82;21136;-82
2020/12/03 01:16:56;;;;;;;57.13;29.02;;;;;;;-0.94;66.66;97039.56;1745122;82;21594;-81
2020/12/03 01:19:25;;;;;;;53.33;28.50;;;;;;;-1.02;66.77;97033.88;1744394;82;21382;-80
2020/12/03 01:21:58;;;;;;;56.08;28.38;;;;;;;-1.10;67.03;97032.92;1744228;81;21585;-80
2020/12/03 01:24:26;;;;;;;56.25;28.85;;;;;;;-1.15;67.30;97035.70;1744176;82;21161;-80
2020/12/03 01:26:56;;;;;;;55.63;28.30;;;;;;;-1.21;67.39;97026.09;1731396;82;21144;-82
2020/12/03 01:29:25;;;;;;;56.40;29.02;;;;;;;-1.22;67.62;97018.80;1742880;82;21156;-80
2020/12/03 01:31:55;;;;;;;60.00;29.52;;;;;;;-1.15;67.48;97021.95;1731887;83;21633;-81
2020/12/03 01:34:24;;;;;;;59.23;30.85;;;;;;;-1.16;67.29;97019.81;1742885;82;21149;-80
2020/12/03 01:36:55;;;;;;;63.63;30.52;;;;;;;-1.18;67.18;97028.10;1731383;83;21528;-80
2020/12/03 01:39:23;;;;;;;59.75;31.48;;;;;;;-1.16;67.18;97022.86;1742827;82;21079;-82
2020/12/03 01:41:53;;;;;;;60.12;29.87;;;;;;;-1.15;67.00;97015.03;1731376;83;21054;-81
2020/12/03 01:44:44;;;;;;;58.02;30.62;;;;;;;-1.11;66.95;97017.04;1742514;82;21201;-80
2020/12/03 01:47:37;;;;;;;60.25;31.23;;;;;;;-1.09;66.79;97017.34;1731262;83;21049;-81
2020/12/03 01:50:07;;;;;;;58.33;29.80;;;;;;;-1.06;66.69;97011.22;1742798;82;21607;-81
2020/12/03 01:52:36;;;;;;;60.83;30.45;;;;;;;-1.07;66.60;97021.14;1731134;83;21191;-82
2020/12/03 01:55:05;;;;;;;62.05;29.87;;;;;;;-1.04;66.51;97018.44;1742044;82;21062;-81
2020/12/03 01:57:55;;;;;;;55.48;29.48;;;;;;;-1.02;66.29;97017.91;1731055;83;21216;-80
2020/12/03 02:00:24;;;;;;;60.15;28.17;;;;;;;-1.05;66.21;97017.23;1742078;82;21077;-81
2020/12/03 02:02:53;;;;;;;55.83;27.40;;;;;;;-1.13;66.30;97012.38;1730720;83;21080;-79
2020/12/03 02:05:27;;;;;;;53.17;26.07;;;;;;;-1.16;66.25;97017.23;1742170;82;21070;-82
2020/12/03 02:07:55;;;;;;;49.13;26.73;;;;;;;-1.23;66.24;97022.29;1730837;83;21132;-81
2020/12/03 02:10:25;;;;;;;56.28;27.85;;;;;;;-1.29;66.50;97021.27;1743482;82;22076;-80
2020/12/03 02:12:54;;;;;;;48.80;25.95;;;;;;;-1.32;66.70;97025.70;1814548;79;21554;-80
2020/12/03 02:15:24;;;;;;;55.30;26.23;;;;;;;-1.35;66.75;97021.52;1745224;82;21070;-82
2020/12/03 02:17:53;;;;;;;55.88;29.15;;;;;;;-1.43;66.91;97018.41;1751885;82;21078;-82
2020/12/03 02:20:21;;;;;;;52.38;28.95;;;;;;;-1.44;66.66;97018.03;1745168;82;21062;-82
2020/12/03 02:22:51;;;;;;;55.70;31.15;;;;;;;-1.49;65.45;97009.63;1814447;79;21186;-81
2020/12/03 02:25:19;;;;;;;57.20;30.77;;;;;;;-1.60;64.94;97013.98;1814501;79;21197;-82
2020/12/03 02:27:48;;;;;;;48.92;25.80;;;;;;;-1.69;65.04;97014.35;1814478;79;21153;-82
2020/12/03 02:30:17;;;;;;;54.45;28.25;;;;;;;-1.78;65.78;97011.72;1814569;79;21106;-82
2020/12/03 02:32:46;;;;;;;55.90;26.52;;;;;;;-1.80;66.28;97001.05;1814450;79;21141;-82
2020/12/03 02:35:16;;;;;;;55.65;27.60;;;;;;;-1.82;66.71;96997.25;1814283;79;21173;-81
2020/12/03 02:37:45;;;;;;;55.83;28.17;;;;;;;-1.83;67.17;96999.45;1814246;79;21176;-81
2020/12/03 02:40:14;;;;;;;47.33;24.67;;;;;;;-1.83;67.26;97006.35;1814477;79;21062;-81
2020/12/03 02:42:43;;;;;;;46.75;25.92;;;;;;;-1.93;67.58;97003.30;1814369;79;21054;-81
2020/12/03 02:45:12;;;;;;;53.13;25.60;;;;;;;-2.01;67.81;97013.10;1814353;79;21164;-81
2020/12/03 02:47:40;;;;;;;54.75;26.33;;;;;;;-2.09;68.17;97000.94;1814496;79;22375;-80
2020/12/03 02:50:09;;;;;;;52.35;25.20;;;;;;;-2.02;68.38;96993.34;1814580;79;21176;-81
2020/12/03 02:52:38;;;;;;;42.78;22.85;;;;;;;-1.98;68.12;96987.99;1745419;82;21117;-80
2020/12/03 02:55:07;;;;;;;47.30;25.48;;;;;;;-2.02;67.97;96988.17;1752264;82;21717;-81
2020/12/03 02:57:36;;;;;;;48.28;25.57;;;;;;;-2.12;68.00;96992.05;1716772;82;21176;-82
2020/12/03 03:00:05;;;;;;;46.88;25.25;;;;;;;-2.16;68.10;96997.77;1815269;79;21138;-81
2020/12/03 03:02:34;;;;;;;50.33;26.23;;;;;;;-2.19;67.82;97000.03;1746731;82;21109;-82
2020/12/03 03:05:03;;;;;;;46.73;25.92;;;;;;;-2.21;67.61;96995.37;1752103;82;21057;-81
2020/12/03 03:07:32;;;;;;;45.35;23.07;;;;;;;-2.25;67.42;96996.41;1745179;81;21081;-81
2020/12/03 03:10:00;;;;;;;40.17;21.90;;;;;;;-2.28;67.27;97000.39;1775641;80;21054;-82
2020/12/03 03:12:29;;;;;;;41.28;21.68;;;;;;;-2.34;67.05;97008.37;1775794;80;21363;-81
2020/12/03 03:15:00;;;;;;;38.33;21.15;;;;;;;-2.49;67.21;97015.39;1775733;80;21145;-81
2020/12/03 03:17:28;;;;;;;42.58;22.60;;;;;;;-2.61;67.55;97014.16;1745058;82;21133;-83
2020/12/03 03:19:58;;;;;;;43.58;24.75;;;;;;;-2.70;67.77;97015.78;1814931;79;21149;-81
2020/12/03 03:22:27;;;;;;;44.93;23.02;;;;;;;-2.76;68.00;97018.13;1745442;82;21117;-81
2020/12/03 03:24:56;;;;;;;44.90;24.67;;;;;;;-2.79;68.13;97017.40;1752001;82;22378;-82
2020/12/03 03:27:25;;;;;;;54.00;29.98;;;;;;;-2.89;68.12;97016.92;1745540;82;21503;-81
2020/12/03 03:29:53;;;;;;;61.85;32.33;;;;;;;-2.94;68.20;97016.69;1816133;79;21053;-83
2020/12/03 03:32:23;;;;;;;66.80;34.00;;;;;;;-3.02;68.18;97015.24;1746739;82;21065;-82
2020/12/03 03:34:52;;;;;;;74.72;39.10;;;;;;;-3.11;68.27;97008.28;1752833;82;21062;-81
2020/12/03 03:37:21;;;;;;;64.60;34.40;;;;;;;-3.25;68.38;97003.64;1745571;82;22137;-82
2020/12/03 03:39:50;;;;;;;62.90;31.52;;;;;;;-3.32;68.74;97008.17;1814835;79;21192;-82
2020/12/03 03:42:18;;;;;;;56.65;27.65;;;;;;;-3.25;68.62;97016.06;1814444;79;21125;-82
2020/12/03 03:44:47;;;;;;;53.52;27.25;;;;;;;-3.24;68.45;97011.30;1814437;79;21094;-81
2020/12/03 03:47:16;;;;;;;49.77;25.25;;;;;;;-3.27;68.40;97013.97;1814676;79;21188;-81
2020/12/03 03:49:44;;;;;;;50.45;26.33;;;;;;;-3.27;68.31;97009.27;1814477;79;21365;-80
2020/12/03 03:52:13;;;;;;;56.35;27.93;;;;;;;-3.32;68.28;97010.75;1815359;79;21491;-82
2020/12/03 03:54:43;;;;;;;44.03;24.12;;;;;;;-3.33;68.26;97013.34;1816189;79;21086;-82
2020/12/03 03:57:11;;;;;;;48.15;25.30;;;;;;;-3.31;68.16;97017.57;1817206;79;21065;-82
2020/12/03 03:59:40;;;;;;;48.60;27.25;;;;;;;-3.25;68.07;97012.66;1816219;79;21586;-82
2020/12/03 04:02:09;;;;;;;42.10;21.33;;;;;;;-3.16;68.56;97004.58;1814692;79;21199;-83
2020/12/03 04:04:38;;;;;;;46.50;25.10;;;;;;;-3.08;68.66;96997.88;1814486;79;21200;-82
2020/12/03 04:07:06;;;;;;;45.45;23.25;;;;;;;-3.09;68.68;97001.33;1814589;79;21153;-81
2020/12/03 04:09:38;;;;;;;41.30;22.77;;;;;;;-3.15;68.78;96992.09;1814463;79;21543;-80
2020/12/03 04:12:07;;;;;;;42.78;23.05;;;;;;;-3.18;68.94;96993.95;1814540;79;21074;-82
2020/12/03 04:14:36;;;;;;;42.40;22.25;;;;;;;-3.23;69.16;96992.38;1814899;79;21577;-81
2020/12/03 04:17:04;;;;;;;44.73;24.90;;;;;;;-3.17;69.33;96990.48;1814558;79;21495;-81
2020/12/03 04:19:33;;;;;;;48.92;25.12;;;;;;;-3.05;69.18;96989.58;1745034;82;21121;-81
2020/12/03 04:22:02;;;;;;;43.13;23.52;;;;;;;-2.94;68.77;96993.50;1752189;82;21090;-80
2020/12/03 04:24:30;;;;;;;47.85;24.75;;;;;;;-2.87;68.41;96989.34;1745927;82;21085;-82
2020/12/03 04:26:59;;;;;;;52.43;27.20;;;;;;;-2.80;68.06;96975.33;1815382;79;21152;-81
2020/12/03 04:29:28;;;;;;;56.70;30.60;;;;;;;-2.80;67.81;96973.20;1745376;82;21129;-81
2020/12/03 04:31:56;;;;;;;55.35;29.50;;;;;;;-2.79;67.75;96983.44;1752196;82;21149;-82
2020/12/03 04:34:25;;;;;;;63.78;32.15;;;;;;;-2.70;67.68;96979.69;1745299;82;21038;-82
2020/12/03 04:36:54;;;;;;;62.13;31.75;;;;;;;-2.62;67.40;96980.67;1776207;80;21511;-81
2020/12/03 04:39:22;;;;;;;63.92;34.05;;;;;;;-2.61;67.21;96977.20;1775937;80;21429;-81
2020/12/03 04:41:53;;;;;;;60.85;31.30;;;;;;;-2.64;66.94;96979.45;1815344;78;21506;-81
2020/12/03 04:44:27;;;;;;;49.73;27.70;;;;;;;-2.64;66.83;96978.17;1747161;80;21474;-82
2020/12/03 04:47:28;;;;;;;54.15;26.85;;;;;;;-2.59;66.25;96982.70;1818441;77;21180;-80
2020/12/03 04:50:27;;;;;;;49.85;25.52;;;;;;;-2.49;65.66;96983.16;1816922;79;21145;-81
2020/12/03 04:53:22;;;;;;;52.95;25.32;;;;;;;-2.44;64.80;96979.96;1775756;80;21373;-82
2020/12/03 04:56:17;;;;;;;49.27;23.83;;;;;;;-2.49;64.53;96978.01;1780239;79;21073;-81
2020/12/03 04:59:01;;;;;;;55.05;25.92;;;;;;;-2.47;63.99;96982.67;1778171;79;21160;-80
2020/12/03 05:01:50;;;;;;;46.88;23.80;;;;;;;-2.48;63.79;96981.00;1815829;79;21510;-81
2020/12/03 05:04:27;;;;;;;47.78;24.27;;;;;;;-2.46;63.56;96989.05;1746165;82;21166;-81
2020/12/03 05:07:06;;;;;;;51.58;24.98;;;;;;;-2.51;63.32;96989.68;1752733;82;21371;-82
2020/12/03 05:10:06;;;;;;;46.58;25.10;;;;;;;-2.65;63.69;96991.13;1716994;82;21085;-82
2020/12/03 05:12:42;;;;;;;45.28;25.15;;;;;;;-2.69;63.86;96989.94;1729829;79;21037;-82
2020/12/03 05:15:31;;;;;;;44.50;24.57;;;;;;;-2.68;64.04;96983.04;1814983;79;21483;-82
2020/12/03 05:18:25;;;;;;;49.55;27.37;;;;;;;-2.60;64.33;96984.89;1814838;79;21092;-82
2020/12/03 05:20:56;;;;;;;56.90;26.50;;;;;;;-2.52;64.79;96990.58;1775898;80;21206;-82
2020/12/03 05:23:33;;;;;;;53.80;26.05;;;;;;;-2.46;65.34;96988.22;1745143;82;21196;-83
2020/12/03 05:26:07;;;;;;;50.98;25.10;;;;;;;-2.38;66.10;96983.59;1814923;79;21554;-81
2020/12/03 05:28:43;;;;;;;47.62;23.70;;;;;;;-2.32;66.45;96979.92;1716359;82;21652;-81
2020/12/03 05:31:23;;;;;;;44.53;24.18;;;;;;;-2.27;66.67;96976.27;1752391;82;21125;-80
2020/12/03 05:33:52;;;;;;;46.05;23.65;;;;;;;-2.34;66.81;96986.45;1745401;82;22294;-82
2020/12/03 05:36:32;;;;;;;207.03;89.05;;;;;;;-2.39;67.03;96997.39;1815093;79;21065;-83
2020/12/03 05:39:29;;;;;;;110.83;58.90;;;;;;;-2.32;67.38;96978.19;1788883;80;28065;-82
2020/12/03 05:42:07;;;;;;;85.30;38.05;;;;;;;-2.42;67.74;96973.86;1770509;81;21585;-80
2020/12/03 05:47:38;;;;;;;51.10;25.10;;;;;;;-2.65;68.09;96981.65;1827383;77;28123;-84
2020/12/03 05:50:44;;;;;;;44.03;22.52;;;;;;;-2.78;68.56;96974.00;1781502;78;21151;-85
2020/12/03 05:53:27;;;;;;;45.38;23.38;;;;;;;-2.88;68.70;96980.39;1768102;78;21231;-85
2020/12/03 05:56:20;;;;;;;43.52;23.85;;;;;;;-2.97;68.88;96978.53;1788150;79;21129;-84
2020/12/03 05:59:40;;;;;;;47.90;24.70;;;;;;;-3.00;68.90;96982.52;1747486;80;21188;-86
2020/12/03 06:13:49;;;;;;;43.80;23.32;;;;;;;-3.40;69.56;96975.84;1828007;77;27961;-83
2020/12/03 06:16:44;;;;;;;56.15;30.32;;;;;;;-3.43;69.71;96978.09;1788051;78;21177;-83
2020/12/03 06:20:03;;;;;;;65.12;34.20;;;;;;;-3.32;69.50;96979.84;1788384;80;22225;-82
2020/12/03 06:23:15;;;;;;;52.62;27.58;;;;;;;-3.14;69.12;96981.33;1794150;78;21161;-84
2020/12/03 06:26:21;;;;;;;47.70;25.37;;;;;;;-2.94;68.54;96970.31;1787675;80;21165;-82
2020/12/03 06:29:36;;;;;;;73.90;37.05;;;;;;;-2.78;67.94;96968.39;1793799;78;21566;-85
2020/12/03 06:32:42;;;;;;;56.30;28.25;;;;;;;-2.62;66.94;96976.36;1761902;78;21553;-81
2020/12/03 06:35:54;;;;;;;50.60;28.32;;;;;;;-2.57;66.47;96974.45;1722055;82;22273;-82
2020/12/03 06:38:59;;;;;;;60.58;32.10;;;;;;;-2.48;66.20;96979.72;1774869;78;21154;-81
2020/12/03 06:41:51;;;;;;;68.90;34.92;;;;;;;-2.37;65.85;96974.11;1788045;78;21111;-82
2020/12/03 06:45:04;;;;;;;66.07;34.73;;;;;;;-2.28;65.55;96968.14;1791094;79;21205;-83
2020/12/03 06:47:47;;;;;;;82.82;46.23;;;;;;;-2.20;65.54;96960.09;1771861;79;21711;-83
2020/12/03 06:50:27;;;;;;;67.75;36.33;;;;;;;-2.07;65.25;96956.59;1781115;79;21365;-80
2020/12/03 06:53:22;;;;;;;61.20;32.53;;;;;;;-2.05;65.33;96955.61;1776388;79;21152;-81
2020/12/03 06:56:03;;;;;;;43.23;24.43;;;;;;;-2.05;65.41;96954.31;1809365;79;21163;-83
2020/12/03 06:59:04;;;;;;;55.00;28.95;;;;;;;-1.97;65.64;96956.12;1755437;79;21223;-85
2020/12/03 07:02:03;;;;;;;47.25;26.48;;;;;;;-1.85;65.49;96957.34;1806487;79;21498;-84
2020/12/03 07:05:18;;;;;;;52.03;27.52;;;;;;;-1.73;65.12;96969.73;1765752;79;22216;-84
2020/12/03 07:08:15;;;;;;;49.33;26.42;;;;;;;-1.66;64.63;96959.98;1804204;79;21219;-85
2020/12/03 07:11:11;;;;;;;39.48;22.55;;;;;;;-1.56;64.23;96947.53;1759012;79;21344;-86
2020/12/03 07:14:17;;;;;;;42.25;24.65;;;;;;;-1.49;63.78;96936.86;1787501;79;21102;-85
2020/12/03 07:17:30;;;;;;;39.38;19.25;;;;;;;-1.46;63.31;96932.03;1793318;79;21170;-86
2020/12/03 07:21:01;;;;;;;34.83;16.57;;;;;;;-1.41;63.04;96941.27;1791064;79;21419;-85
2020/12/03 07:23:52;;;;;;;33.83;17.82;;;;;;;-1.50;63.80;96935.65;1788793;79;21519;-85
2020/12/03 07:27:08;;;;;;;33.88;17.30;;;;;;;-1.44;63.94;96940.55;1762331;79;21053;-86
2020/12/03 07:29:55;;;;;;;36.00;18.17;;;;;;;-1.37;63.78;96928.58;1793171;79;21064;-84
2020/12/03 07:33:01;;;;;;;29.82;16.57;;;;;;;-1.35;63.81;96933.70;1757338;79;21588;-85
2020/12/03 07:35:59;;;;;;;27.67;15.98;;;;;;;-1.41;63.91;96930.93;1792711;79;22123;-83
2020/12/03 07:38:36;;;;;;;29.35;15.20;;;;;;;-1.41;63.80;96930.09;1747974;81;21666;-84
2020/12/03 07:41:13;;;;;;;31.15;16.25;;;;;;;-1.48;63.64;96931.24;1755466;80;21238;-83
2020/12/03 07:44:53;;;;;;;32.33;17.75;;;;;;;-1.59;63.70;96927.86;1741035;79;21286;-85
2020/12/03 07:47:36;;;;;;;32.50;17.05;;;;;;;-1.63;64.16;96937.47;1654992;81;21082;-82
2020/12/03 07:50:07;;;;;;;30.43;16.87;;;;;;;-1.56;64.51;96936.75;1808716;79;21429;-82
2020/12/03 07:52:38;;;;;;;37.93;18.40;;;;;;;-1.51;65.16;96930.94;1805816;79;21157;-84
2020/12/03 07:55:27;;;;;;;35.33;18.98;;;;;;;-1.53;65.12;96928.05;1808789;79;21159;-84
2020/12/03 07:57:59;;;;;;;29.75;15.72;;;;;;;-1.50;65.00;96929.19;1793212;79;21641;-83
2020/12/03 08:00:48;;;;;;;33.48;16.95;;;;;;;-1.45;65.35;96928.09;1776991;79;21178;-82
2020/12/03 08:03:43;;;;;;;34.33;18.27;;;;;;;-1.55;65.49;96923.38;1768144;80;21214;-83
2020/12/03 08:06:29;;;;;;;31.68;15.32;;;;;;;-1.69;66.02;96923.53;1787388;80;21086;-82
2020/12/03 08:09:06;;;;;;;36.05;19.02;;;;;;;-1.74;66.25;96913.02;1799721;79;21141;-84
2020/12/03 08:12:03;;;;;;;33.08;16.32;;;;;;;-1.78;66.82;96911.05;1809101;79;21109;-83
2020/12/03 08:14:54;;;;;;;32.93;16.95;;;;;;;-1.77;67.51;96916.59;1794240;79;21061;-85
2020/12/03 08:17:28;;;;;;;35.45;17.35;;;;;;;-1.78;68.27;96905.87;1798150;79;21356;-85
2020/12/03 08:20:08;;;;;;;39.73;20.88;;;;;;;-1.71;68.23;96908.58;1805984;79;21136;-83
2020/12/03 08:22:49;;;;;;;34.70;17.20;;;;;;;-1.62;68.21;96908.61;1800041;77;21205;-83
2020/12/03 08:25:28;;;;;;;32.63;16.97;;;;;;;-1.50;68.51;96910.66;1796249;79;21157;-85
2020/12/03 08:28:04;;;;;;;29.18;15.40;;;;;;;-1.38;68.17;96908.82;1785378;80;21270;-83
2020/12/03 08:30:42;;;;;;;32.35;17.25;;;;;;;-1.24;68.01;96908.69;1796176;79;21939;-84
2020/12/03 08:33:17;;;;;;;32.90;17.30;;;;;;;-1.18;67.71;96907.95;1801947;79;21192;-86
2020/12/03 08:35:54;;;;;;;33.67;18.30;;;;;;;-1.06;67.61;96903.13;1810761;79;21713;-83
2020/12/03 08:38:28;;;;;;;32.30;16.85;;;;;;;-0.91;67.34;96894.20;1810285;79;21180;-84
2020/12/03 08:41:03;;;;;;;32.45;16.52;;;;;;;-0.69;67.05;96900.50;1810999;79;21109;-84
2020/12/03 08:43:39;;;;;;;33.75;17.73;;;;;;;-0.58;66.70;96908.59;1807100;79;21176;-85
2020/12/03 08:48:37;;;;;;;28.35;15.15;;;;;;;-0.21;66.12;96896.45;1759706;79;21129;-83
2020/12/03 08:51:13;;;;;;;29.70;16.52;;;;;;;-0.04;65.61;96893.88;1766848;80;21058;-82
2020/12/03 08:53:48;;;;;;;30.25;15.90;;;;;;;0.03;65.19;96893.10;1789202;79;21034;-86
2020/12/03 08:56:37;;;;;;;30.65;16.30;;;;;;;0.11;65.13;96887.06;1812515;79;21373;-84
2020/12/03 08:59:15;;;;;;;28.25;15.35;;;;;;;0.19;64.54;96883.66;1779614;79;21632;-82
2020/12/03 09:01:51;;;;;;;32.80;16.65;;;;;;;0.19;64.49;96875.88;1782812;79;21079;-84
2020/12/03 09:04:24;;;;;;;30.20;17.57;;;;;;;0.10;64.54;96867.73;1789971;79;21062;-80
2020/12/03 09:06:54;;;;;;;31.33;17.15;;;;;;;0.09;64.87;96864.77;1784060;79;21147;-84
2020/12/03 09:09:33;;;;;;;31.80;16.95;;;;;;;0.14;64.80;96857.61;1787657;79;21275;-86
2020/12/03 09:12:49;;;;;;;35.83;16.40;;;;;;;0.24;64.87;96848.46;1851337;75;28218;-84
2020/12/03 09:18:44;;;;;;;30.00;17.85;;;;;;;0.55;64.34;96852.03;1848448;75;28248;-86
2020/12/03 09:21:13;;;;;;;28.17;16.12;;;;;;;0.61;64.15;96849.95;1756284;80;21203;-86
2020/12/03 09:23:48;;;;;;;27.75;15.53;;;;;;;0.65;64.20;96842.40;1808585;77;22247;-84
2020/12/03 09:26:34;;;;;;;25.70;15.50;;;;;;;0.65;63.67;96841.53;1763355;80;21092;-84
2020/12/03 09:29:28;;;;;;;32.23;16.80;;;;;;;0.34;64.27;96828.91;1766967;79;21072;-84
2020/12/03 09:32:04;;;;;;;30.85;14.47;;;;;;;0.34;64.27;96828.91;1725834;82;21189;-81
2020/12/03 09:34:37;;;;;;;28.47;15.93;;;;;;;0.30;64.79;96839.51;1812794;79;21190;-82
2020/12/03 09:37:07;;;;;;;32.20;17.07;;;;;;;0.22;65.06;96835.57;1815380;77;21212;-84
2020/12/03 09:39:39;;;;;;;31.25;16.62;;;;;;;0.12;65.62;96831.80;1770626;80;21070;-83
2020/12/03 09:42:15;;;;;;;;;;;;;;;0.11;65.92;96827.98;1802559;79;21582;-83
2020/12/03 09:44:54;;;;;;;28.23;16.30;;;;;;;0.13;66.04;96824.88;1794776;77;20224;-80
2020/12/03 09:47:24;;;;;;;26.33;15.45;;;;;;;0.17;66.14;96822.02;1750432;81;21212;-81
2020/12/03 09:49:55;;;;;;;27.73;15.80;;;;;;;0.21;65.85;96826.13;1719920;81;22123;-81
2020/12/03 09:52:26;;;;;;;27.75;16.12;;;;;;;0.28;65.83;96820.63;1772147;78;21165;-81
2020/12/03 09:54:56;;;;;;;26.17;15.23;;;;;;;0.37;65.69;96820.16;1745560;81;21223;-81
2020/12/03 09:57:25;;;;;;;30.05;16.75;;;;;;;0.51;65.51;96818.95;1807947;78;21560;-83
2020/12/03 09:59:55;;;;;;;30.62;17.80;;;;;;;0.47;65.68;96810.97;1809782;78;21216;-80
2020/12/03 10:02:42;;;;;;;26.55;14.10;;;;;;;0.47;65.57;96803.19;1737434;81;21426;-81
2020/12/03 10:05:57;;;;;;;29.12;15.30;;;;;;;0.41;65.42;96790.11;1712253;81;21189;-81
2020/12/03 10:09:23;;;;;;;31.30;16.90;;;;;;;0.33;66.07;96790.98;1809776;77;21204;-82
2020/12/03 10:12:02;;;;;;;;;;;;;;;0.26;66.05;96787.89;1713901;82;21255;-86
2020/12/03 10:15:16;;;;;;;27.07;15.45;;;;;;;0.32;66.39;96769.06;1827142;77;28084;-82
2020/12/03 10:18:08;;;;;;;25.88;15.05;;;;;;;0.25;67.14;96774.56;1809443;78;21050;-84
2020/12/03 10:20:37;;;;;;;27.85;15.60;;;;;;;0.25;66.90;96765.50;1751306;81;21432;-82
2020/12/03 10:23:37;;;;;;;25.35;14.65;;;;;;;0.26;67.12;96761.98;1787860;78;21121;-85
2020/12/03 10:26:19;;;;;;;28.77;14.85;;;;;;;0.31;67.40;96760.92;1795378;78;21176;-81
2020/12/03 10:28:57;;;;;;;30.30;15.20;;;;;;;0.37;67.22;96751.52;1797290;78;21204;-84
2020/12/03 10:31:29;;;;;;;32.48;17.05;;;;;;;0.41;66.85;96745.23;1789068;78;21160;-81
2020/12/03 11:01:28;;;;;;;28.05;16.25;;;;;;;1.04;64.67;96716.21;1695584;82;21158;-82
2020/12/03 11:04:06;;;;;;;30.00;15.40;;;;;;;1.12;64.11;96724.00;1702564;84;21187;-85
2020/12/03 11:06:35;;;;;;;29.77;16.15;;;;;;;1.15;64.21;96724.68;1706712;84;21213;-84
2020/12/03 11:09:05;;;;;;;30.35;15.72;;;;;;;1.25;63.87;96720.64;1699119;84;21392;-82
2020/12/03 11:11:38;;;;;;;27.37;15.65;;;;;;;1.34;63.34;96703.23;1688727;84;21181;-82
2020/12/03 11:14:14;;;;;;;28.62;16.65;;;;;;;1.34;63.96;96701.09;1677032;84;21270;-83
2020/12/03 11:17:01;;;;;;;29.27;16.85;;;;;;;1.33;63.82;96692.48;1672773;84;21172;-81
2020/12/03 11:19:40;;;;;;;32.90;17.02;;;;;;;1.44;63.41;96689.27;1850632;77;28104;-83
2020/12/03 11:22:41;;;;;;;30.33;17.40;;;;;;;1.45;63.01;96694.82;1802815;78;21581;-85
2020/12/03 11:25:13;;;;;;;29.92;14.50;;;;;;;1.50;62.93;96690.20;1762578;79;21427;-85
2020/12/03 11:27:43;;;;;;;30.02;16.62;;;;;;;1.60;62.67;96690.03;1807511;79;21236;-82
2020/12/03 11:30:20;;;;;;;27.48;16.73;;;;;;;1.67;62.62;96688.37;1807659;79;21208;-84
2020/12/03 11:32:52;;;;;;;29.98;17.23;;;;;;;1.75;62.43;96684.83;1813157;79;21776;-84
2020/12/03 11:35:33;;;;;;;34.25;19.32;;;;;;;1.78;62.22;96676.84;1753987;80;21203;-85
2020/12/03 11:38:05;;;;;;;32.65;19.23;;;;;;;1.78;62.47;96673.81;1730343;78;21240;-82
2020/12/03 11:48:54;;;;;;;28.62;15.95;;;;;;;1.87;62.80;96678.90;1789225;79;22255;-83
2020/12/03 11:51:34;;;;;;;30.23;17.80;;;;;;;1.80;63.12;96670.65;1804584;78;21478;-86
2020/12/03 11:54:09;;;;;;;36.55;18.70;;;;;;;1.74;63.29;96664.53;1796603;79;20999;-84
2020/12/03 11:56:39;;;;;;;34.80;19.35;;;;;;;1.72;63.44;96656.02;1793946;79;21164;-84
2020/12/03 11:59:21;;;;;;;32.42;18.17;;;;;;;1.72;63.55;96655.16;1745613;79;21730;-87
2020/12/03 12:01:53;;;;;;;28.00;15.13;;;;;;;1.74;63.36;96652.02;1800833;78;21601;-85
2020/12/03 12:04:42;;;;;;;32.65;19.17;;;;;;;1.77;63.25;96645.33;1801900;78;23169;-84
2020/12/03 12:07:24;;;;;;;29.67;16.42;;;;;;;1.80;63.30;96642.56;1798238;79;21137;-85
2020/12/03 12:12:18;;;;;;;28.27;16.42;;;;;;;1.84;62.96;96645.34;1801572;79;21192;-85
2020/12/03 12:14:47;;;;;;;24.23;12.65;;;;;;;1.84;62.94;96637.56;1796196;79;21192;-83
2020/12/03 12:17:28;;;;;;;28.83;17.62;;;;;;;1.82;62.92;96632.91;1798827;79;21113;-83
2020/12/03 12:20:05;;;;;;;29.10;16.82;;;;;;;1.76;62.86;96636.70;1801431;78;21142;-84
2020/12/03 12:22:34;;;;;;;28.32;17.17;;;;;;;1.67;63.03;96637.29;1797597;79;21068;-84
2020/12/03 12:25:04;;;;;;;27.87;17.90;;;;;;;1.67;63.26;96633.86;1805561;79;21152;-85
2020/12/03 12:27:34;;;;;;;29.55;17.95;;;;;;;1.72;62.97;96623.57;1802645;79;21689;-84
2020/12/03 12:30:03;;;;;;;29.15;17.35;;;;;;;1.68;62.79;96631.63;1795716;78;21219;-82
2020/12/03 12:32:33;;;;;;;28.87;17.42;;;;;;;1.65;62.99;96630.50;1771110;79;21127;-85
2020/12/03 12:35:05;;;;;;;30.08;18.25;;;;;;;1.62;63.15;96628.11;1800426;78;21065;-83
2020/12/03 12:37:36;;;;;;;30.30;16.70;;;;;;;1.58;63.30;96629.58;1796038;79;21144;-84
2020/12/03 12:40:09;;;;;;;33.78;20.43;;;;;;;1.54;63.50;96635.91;1795965;79;22296;-84
2020/12/03 12:42:47;;;;;;;31.27;20.27;;;;;;;1.51;63.84;96632.64;1798734;78;21187;-84
2020/12/03 12:45:35;;;;;;;30.77;19.27;;;;;;;1.46;63.88;96626.42;1742479;81;21163;-86
2020/12/03 12:48:05;;;;;;;30.70;17.75;;;;;;;1.36;64.16;96628.36;1813146;78;22299;-84
2020/12/03 12:50:38;;;;;;;36.68;19.95;;;;;;;1.34;64.52;96631.89;1804563;79;21070;-85
2020/12/03 12:53:08;;;;;;;36.73;20.95;;;;;;;1.38;64.74;96635.61;1775129;79;21441;-84
2020/12/03 12:55:38;;;;;;;31.68;20.62;;;;;;;1.44;64.73;96636.08;1763397;80;21096;-84
2020/12/03 12:58:09;;;;;;;34.63;19.75;;;;;;;1.52;64.84;96636.91;1797912;78;21089;-86
2020/12/03 13:00:41;;;;;;;33.42;21.40;;;;;;;1.55;64.77;96631.55;1796250;79;21080;-83
2020/12/03 13:03:11;;;;;;;35.73;19.25;;;;;;;1.59;64.77;96639.49;1803932;78;21537;-85
2020/12/03 13:05:42;;;;;;;36.10;20.37;;;;;;;1.59;64.91;96635.59;1804974;78;22108;-85
2020/12/03 13:08:17;;;;;;;35.92;20.05;;;;;;;1.58;65.00;96633.94;1803810;78;21089;-85